sensor_id;sensor_type;location;lat;lon;timestamp;temperature;humidity
30308;DHT22;17114;52.314;8.910;2023-06-14T00:01:35;16.00;99.90
30308;DHT22;17114;52.314;8.910;2023-06-14T00:04:03;16.00;99.90
30308;DHT22;17114;52.314;8.910;2023-06-14T00:06:31;15.90;99.90
30308;DHT22;17114;52.314;8.910;2023-06-14T00:09:00;15.80;99.90
30308;DHT22;17114;52.314;8.910;2023-06-14T00:11:28;15.80;99.90
30308;DHT22;17114;52.314;8.910;2023-06-14T00:13:56;15.70;99.90
30308;DHT22;17114;52.314;8.910;2023-06-14T00:16:23;15.70;99.90
30308;DHT22;17114;52.314;8.910;2023-06-14T00:18:51;15.70;99.90
30308;DHT22;17114;52.314;8.910;2023-06-14T00:21:21;15.60;99.90
30308;DHT22;17114;52.314;8.910;2023-06-14T00:23:48;15.50;99.90
30308;DHT22;17114;52.314;8.910;2023-06-14T00:26:15;15.50;99.90
30308;DHT22;17114;52.314;8.910;2023-06-14T00:28:43;15.50;99.90
30308;DHT22;17114;52.314;8.910;2023-06-14T00:31:09;15.40;99.90
30308;DHT22;17114;52.314;8.910;2023-06-14T00:33:36;15.40;99.90
30308;DHT22;17114;52.314;8.910;2023-06-14T00:36:04;15.40;99.90
30308;DHT22;17114;52.314;8.910;2023-06-14T00:38:31;15.20;99.90
30308;DHT22;17114;52.314;8.910;2023-06-14T00:40:58;15.20;99.90
30308;DHT22;17114;52.314;8.910;2023-06-14T00:43:25;15.10;99.90
30308;DHT22;17114;52.314;8.910;2023-06-14T00:45:52;15.10;99.90
30308;DHT22;17114;52.314;8.910;2023-06-14T00:48:19;15.10;99.90
30308;DHT22;17114;52.314;8.910;2023-06-14T00:50:47;15.00;99.90
30308;DHT22;17114;52.314;8.910;2023-06-14T00:53:16;15.00;99.90
30308;DHT22;17114;52.314;8.910;2023-06-14T00:55:44;15.00;99.90
30308;DHT22;17114;52.314;8.910;2023-06-14T00:58:15;14.90;99.90
30308;DHT22;17114;52.314;8.910;2023-06-14T01:00:42;14.90;99.90
30308;DHT22;17114;52.314;8.910;2023-06-14T01:03:09;14.80;99.90
30308;DHT22;17114;52.314;8.910;2023-06-14T01:05:39;14.70;99.90
30308;DHT22;17114;52.314;8.910;2023-06-14T01:11:02;14.60;99.90
30308;DHT22;17114;52.314;8.910;2023-06-14T01:13:35;14.60;99.90
30308;DHT22;17114;52.314;8.910;2023-06-14T01:16:04;14.60;99.90
30308;DHT22;17114;52.314;8.910;2023-06-14T01:18:32;14.50;99.90
30308;DHT22;17114;52.314;8.910;2023-06-14T01:21:00;14.50;99.90
30308;DHT22;17114;52.314;8.910;2023-06-14T01:23:32;14.40;99.90
30308;DHT22;17114;52.314;8.910;2023-06-14T01:26:01;14.40;99.90
30308;DHT22;17114;52.314;8.910;2023-06-14T01:28:31;14.40;99.90
30308;DHT22;17114;52.314;8.910;2023-06-14T01:31:02;14.30;99.90
30308;DHT22;17114;52.314;8.910;2023-06-14T01:33:33;14.30;99.90
30308;DHT22;17114;52.314;8.910;2023-06-14T01:36:02;14.20;99.90
30308;DHT22;17114;52.314;8.910;2023-06-14T01:38:30;14.20;99.90
30308;DHT22;17114;52.314;8.910;2023-06-14T01:40:58;14.20;99.90
30308;DHT22;17114;52.314;8.910;2023-06-14T01:43:26;14.20;99.90
30308;DHT22;17114;52.314;8.910;2023-06-14T01:45:55;14.20;99.90
30308;DHT22;17114;52.314;8.910;2023-06-14T01:48:24;14.20;99.90
30308;DHT22;17114;52.314;8.910;2023-06-14T01:50:52;14.20;99.90
30308;DHT22;17114;52.314;8.910;2023-06-14T01:53:19;14.20;99.90
30308;DHT22;17114;52.314;8.910;2023-06-14T01:55:46;14.10;99.90
30308;DHT22;17114;52.314;8.910;2023-06-14T01:58:15;14.10;99.90
30308;DHT22;17114;52.314;8.910;2023-06-14T02:00:45;14.10;99.90
30308;DHT22;17114;52.314;8.910;2023-06-14T02:03:14;14.10;99.90
30308;DHT22;17114;52.314;8.910;2023-06-14T02:05:43;14.10;99.90
30308;DHT22;17114;52.314;8.910;2023-06-14T02:08:10;14.10;99.90
30308;DHT22;17114;52.314;8.910;2023-06-14T02:10:37;14.00;99.90
30308;DHT22;17114;52.314;8.910;2023-06-14T02:13:04;13.90;99.90
30308;DHT22;17114;52.314;8.910;2023-06-14T02:15:31;13.90;99.90
30308;DHT22;17114;52.314;8.910;2023-06-14T02:18:01;13.80;99.90
30308;DHT22;17114;52.314;8.910;2023-06-14T02:20:29;13.80;99.90
30308;DHT22;17114;52.314;8.910;2023-06-14T02:22:57;13.80;99.90
30308;DHT22;17114;52.314;8.910;2023-06-14T02:25:24;13.70;99.90
30308;DHT22;17114;52.314;8.910;2023-06-14T02:27:51;13.70;99.90
30308;DHT22;17114;52.314;8.910;2023-06-14T02:30:18;13.60;99.90
30308;DHT22;17114;52.314;8.910;2023-06-14T02:32:46;13.60;99.90
30308;DHT22;17114;52.314;8.910;2023-06-14T02:35:15;13.50;99.90
30308;DHT22;17114;52.314;8.910;2023-06-14T02:37:42;13.50;99.90
30308;DHT22;17114;52.314;8.910;2023-06-14T02:40:09;13.40;99.90
30308;DHT22;17114;52.314;8.910;2023-06-14T02:42:36;13.40;99.90
30308;DHT22;17114;52.314;8.910;2023-06-14T02:45:03;13.40;99.90
30308;DHT22;17114;52.314;8.910;2023-06-14T02:47:31;13.30;99.90
30308;DHT22;17114;52.314;8.910;2023-06-14T02:49:58;13.30;99.90
30308;DHT22;17114;52.314;8.910;2023-06-14T02:52:25;13.20;99.90
30308;DHT22;17114;52.314;8.910;2023-06-14T02:54:52;13.20;99.90
30308;DHT22;17114;52.314;8.910;2023-06-14T02:57:19;13.10;99.90
30308;DHT22;17114;52.314;8.910;2023-06-14T02:59:46;13.10;99.90
30308;DHT22;17114;52.314;8.910;2023-06-14T03:02:13;13.10;99.90
30308;DHT22;17114;52.314;8.910;2023-06-14T03:04:39;13.00;99.90
30308;DHT22;17114;52.314;8.910;2023-06-14T03:07:07;13.00;99.90
30308;DHT22;17114;52.314;8.910;2023-06-14T03:09:38;12.90;99.90
30308;DHT22;17114;52.314;8.910;2023-06-14T03:12:06;12.90;99.90
30308;DHT22;17114;52.314;8.910;2023-06-14T03:14:33;12.90;99.90
30308;DHT22;17114;52.314;8.910;2023-06-14T03:17:02;13.00;99.90
30308;DHT22;17114;52.314;8.910;2023-06-14T03:19:31;13.00;99.90
30308;DHT22;17114;52.314;8.910;2023-06-14T03:21:58;13.00;99.90
30308;DHT22;17114;52.314;8.910;2023-06-14T03:24:25;13.00;99.90
30308;DHT22;17114;52.314;8.910;2023-06-14T03:26:56;13.00;99.90
30308;DHT22;17114;52.314;8.910;2023-06-14T03:29:23;13.00;99.90
30308;DHT22;17114;52.314;8.910;2023-06-14T03:32:01;13.10;99.90
30308;DHT22;17114;52.314;8.910;2023-06-14T03:34:29;13.10;99.90
30308;DHT22;17114;52.314;8.910;2023-06-14T03:36:56;13.10;99.90
30308;DHT22;17114;52.314;8.910;2023-06-14T03:39:22;13.10;99.90
30308;DHT22;17114;52.314;8.910;2023-06-14T03:41:49;13.10;99.90
30308;DHT22;17114;52.314;8.910;2023-06-14T03:44:18;13.20;99.90
30308;DHT22;17114;52.314;8.910;2023-06-14T03:46:45;13.20;99.90
30308;DHT22;17114;52.314;8.910;2023-06-14T03:49:13;13.20;99.90
30308;DHT22;17114;52.314;8.910;2023-06-14T03:51:40;13.30;99.90
30308;DHT22;17114;52.314;8.910;2023-06-14T03:54:07;13.30;99.90
30308;DHT22;17114;52.314;8.910;2023-06-14T03:56:37;13.30;99.90
30308;DHT22;17114;52.314;8.910;2023-06-14T03:59:04;13.30;99.90
30308;DHT22;17114;52.314;8.910;2023-06-14T04:01:31;13.40;99.90
30308;DHT22;17114;52.314;8.910;2023-06-14T04:04:00;13.50;99.90
30308;DHT22;17114;52.314;8.910;2023-06-14T04:06:28;13.50;99.90
30308;DHT22;17114;52.314;8.910;2023-06-14T04:08:59;13.50;99.90
30308;DHT22;17114;52.314;8.910;2023-06-14T04:11:30;13.60;99.90
30308;DHT22;17114;52.314;8.910;2023-06-14T04:13:58;13.60;99.90
30308;DHT22;17114;52.314;8.910;2023-06-14T04:16:26;13.70;99.90
30308;DHT22;17114;52.314;8.910;2023-06-14T04:18:54;13.80;99.90
30308;DHT22;17114;52.314;8.910;2023-06-14T04:21:22;13.90;99.90
30308;DHT22;17114;52.314;8.910;2023-06-14T04:23:50;14.00;99.90
30308;DHT22;17114;52.314;8.910;2023-06-14T04:26:22;14.00;99.90
30308;DHT22;17114;52.314;8.910;2023-06-14T04:28:53;14.10;99.90
30308;DHT22;17114;52.314;8.910;2023-06-14T04:31:23;14.20;99.90
30308;DHT22;17114;52.314;8.910;2023-06-14T04:33:56;14.30;99.90
30308;DHT22;17114;52.314;8.910;2023-06-14T04:36:23;14.50;99.90
30308;DHT22;17114;52.314;8.910;2023-06-14T04:38:51;15.00;99.90
30308;DHT22;17114;52.314;8.910;2023-06-14T04:41:21;15.80;99.90
30308;DHT22;17114;52.314;8.910;2023-06-14T04:43:49;16.60;99.90
30308;DHT22;17114;52.314;8.910;2023-06-14T04:46:16;17.50;99.90
30308;DHT22;17114;52.314;8.910;2023-06-14T04:48:44;18.10;99.90
30308;DHT22;17114;52.314;8.910;2023-06-14T04:51:12;18.70;99.90
30308;DHT22;17114;52.314;8.910;2023-06-14T04:53:40;19.20;99.90
30308;DHT22;17114;52.314;8.910;2023-06-14T04:56:06;19.80;99.90
30308;DHT22;17114;52.314;8.910;2023-06-14T04:58:34;20.20;99.90
30308;DHT22;17114;52.314;8.910;2023-06-14T05:01:00;20.50;99.90
30308;DHT22;17114;52.314;8.910;2023-06-14T05:03:29;20.80;99.90
30308;DHT22;17114;52.314;8.910;2023-06-14T05:05:57;21.10;99.90
30308;DHT22;17114;52.314;8.910;2023-06-14T05:08:24;21.50;99.90
30308;DHT22;17114;52.314;8.910;2023-06-14T05:10:52;21.70;99.90
30308;DHT22;17114;52.314;8.910;2023-06-14T05:13:19;22.10;99.90
30308;DHT22;17114;52.314;8.910;2023-06-14T05:15:48;22.30;99.90
30308;DHT22;17114;52.314;8.910;2023-06-14T05:18:15;22.60;99.90
30308;DHT22;17114;52.314;8.910;2023-06-14T05:20:43;22.70;99.90
30308;DHT22;17114;52.314;8.910;2023-06-14T05:23:10;22.80;99.90
30308;DHT22;17114;52.314;8.910;2023-06-14T05:25:46;22.50;99.90
30308;DHT22;17114;52.314;8.910;2023-06-14T05:28:13;22.30;99.90
30308;DHT22;17114;52.314;8.910;2023-06-14T05:30:40;22.10;99.90
30308;DHT22;17114;52.314;8.910;2023-06-14T05:33:07;22.30;99.90
30308;DHT22;17114;52.314;8.910;2023-06-14T05:35:34;22.70;99.90
30308;DHT22;17114;52.314;8.910;2023-06-14T05:38:01;22.50;99.90
30308;DHT22;17114;52.314;8.910;2023-06-14T05:40:28;22.60;99.90
30308;DHT22;17114;52.314;8.910;2023-06-14T05:42:55;23.00;99.90
30308;DHT22;17114;52.314;8.910;2023-06-14T05:45:22;23.10;99.90
30308;DHT22;17114;52.314;8.910;2023-06-14T05:47:49;22.90;99.90
30308;DHT22;17114;52.314;8.910;2023-06-14T05:50:17;22.80;99.90
30308;DHT22;17114;52.314;8.910;2023-06-14T05:52:44;22.60;99.90
30308;DHT22;17114;52.314;8.910;2023-06-14T05:55:11;22.80;99.90
30308;DHT22;17114;52.314;8.910;2023-06-14T05:57:42;23.20;99.90
30308;DHT22;17114;52.314;8.910;2023-06-14T06:00:09;23.50;99.90
30308;DHT22;17114;52.314;8.910;2023-06-14T06:02:44;23.10;99.90
30308;DHT22;17114;52.314;8.910;2023-06-14T06:05:12;22.90;99.90
30308;DHT22;17114;52.314;8.910;2023-06-14T06:07:40;22.80;99.90
30308;DHT22;17114;52.314;8.910;2023-06-14T06:10:07;23.10;99.90
30308;DHT22;17114;52.314;8.910;2023-06-14T06:12:34;23.30;99.90
30308;DHT22;17114;52.314;8.910;2023-06-14T06:15:03;23.80;99.90
30308;DHT22;17114;52.314;8.910;2023-06-14T06:17:30;23.60;99.90
30308;DHT22;17114;52.314;8.910;2023-06-14T06:20:17;23.60;99.90
30308;DHT22;17114;52.314;8.910;2023-06-14T06:22:45;23.40;99.90
30308;DHT22;17114;52.314;8.910;2023-06-14T06:25:12;23.40;99.90
30308;DHT22;17114;52.314;8.910;2023-06-14T06:27:40;23.40;99.90
30308;DHT22;17114;52.314;8.910;2023-06-14T06:30:07;23.40;99.90
30308;DHT22;17114;52.314;8.910;2023-06-14T06:32:35;23.70;99.90
30308;DHT22;17114;52.314;8.910;2023-06-14T06:35:05;24.10;99.90
30308;DHT22;17114;52.314;8.910;2023-06-14T06:37:34;24.40;99.90
30308;DHT22;17114;52.314;8.910;2023-06-14T06:40:01;24.80;99.90
30308;DHT22;17114;52.314;8.910;2023-06-14T06:42:28;24.50;99.90
30308;DHT22;17114;52.314;8.910;2023-06-14T06:44:55;24.40;99.90
30308;DHT22;17114;52.314;8.910;2023-06-14T06:47:25;24.50;99.90
30308;DHT22;17114;52.314;8.910;2023-06-14T06:49:53;24.90;99.90
30308;DHT22;17114;52.314;8.910;2023-06-14T06:52:20;25.00;99.90
30308;DHT22;17114;52.314;8.910;2023-06-14T06:54:47;24.60;99.90
30308;DHT22;17114;52.314;8.910;2023-06-14T06:57:14;24.60;99.90
30308;DHT22;17114;52.314;8.910;2023-06-14T06:59:41;24.70;99.90
30308;DHT22;17114;52.314;8.910;2023-06-14T07:02:08;24.90;99.90
30308;DHT22;17114;52.314;8.910;2023-06-14T07:04:35;25.30;99.90
30308;DHT22;17114;52.314;8.910;2023-06-14T07:07:03;25.20;99.90
30308;DHT22;17114;52.314;8.910;2023-06-14T07:09:30;25.60;99.90
30308;DHT22;17114;52.314;8.910;2023-06-14T07:11:57;26.10;99.30
30308;DHT22;17114;52.314;8.910;2023-06-14T07:14:24;26.20;98.30
30308;DHT22;17114;52.314;8.910;2023-06-14T07:16:52;25.80;97.10
30308;DHT22;17114;52.314;8.910;2023-06-14T07:19:19;25.60;97.30
30308;DHT22;17114;52.314;8.910;2023-06-14T07:21:46;25.30;97.40
30308;DHT22;17114;52.314;8.910;2023-06-14T07:24:13;25.60;98.00
30308;DHT22;17114;52.314;8.910;2023-06-14T07:26:40;26.00;97.10
30308;DHT22;17114;52.314;8.910;2023-06-14T07:29:07;26.00;95.80
30308;DHT22;17114;52.314;8.910;2023-06-14T07:31:34;25.80;96.40
30308;DHT22;17114;52.314;8.910;2023-06-14T07:34:01;25.50;95.20
30308;DHT22;17114;52.314;8.910;2023-06-14T07:36:28;25.20;95.60
30308;DHT22;17114;52.314;8.910;2023-06-14T07:38:55;24.90;96.10
30308;DHT22;17114;52.314;8.910;2023-06-14T07:41:23;24.70;96.10
30308;DHT22;17114;52.314;8.910;2023-06-14T07:43:50;24.50;96.60
30308;DHT22;17114;52.314;8.910;2023-06-14T07:46:17;24.60;97.00
30308;DHT22;17114;52.314;8.910;2023-06-14T07:48:44;25.10;97.10
30308;DHT22;17114;52.314;8.910;2023-06-14T07:51:12;25.10;97.30
30308;DHT22;17114;52.314;8.910;2023-06-14T07:53:39;25.50;96.10
30308;DHT22;17114;52.314;8.910;2023-06-14T07:56:07;25.60;96.00
30308;DHT22;17114;52.314;8.910;2023-06-14T07:58:34;25.30;95.80
30308;DHT22;17114;52.314;8.910;2023-06-14T08:01:01;24.90;96.00
30308;DHT22;17114;52.314;8.910;2023-06-14T08:03:33;24.70;95.50
30308;DHT22;17114;52.314;8.910;2023-06-14T08:06:00;24.70;96.20
30308;DHT22;17114;52.314;8.910;2023-06-14T08:08:27;24.80;96.10
30308;DHT22;17114;52.314;8.910;2023-06-14T08:10:54;24.70;97.00
30308;DHT22;17114;52.314;8.910;2023-06-14T08:13:21;24.90;96.70
30308;DHT22;17114;52.314;8.910;2023-06-14T08:15:48;24.80;97.00
30308;DHT22;17114;52.314;8.910;2023-06-14T08:18:17;24.90;96.00
30308;DHT22;17114;52.314;8.910;2023-06-14T08:20:44;25.40;96.30
30308;DHT22;17114;52.314;8.910;2023-06-14T08:23:11;25.70;95.60
30308;DHT22;17114;52.314;8.910;2023-06-14T08:25:38;25.40;94.80
30308;DHT22;17114;52.314;8.910;2023-06-14T08:28:05;25.40;95.50
30308;DHT22;17114;52.314;8.910;2023-06-14T08:30:33;26.20;95.40
30308;DHT22;17114;52.314;8.910;2023-06-14T08:33:00;27.00;93.90
30308;DHT22;17114;52.314;8.910;2023-06-14T08:35:41;27.10;93.60
30308;DHT22;17114;52.314;8.910;2023-06-14T08:38:08;26.40;93.00
30308;DHT22;17114;52.314;8.910;2023-06-14T08:40:37;25.60;93.70
30308;DHT22;17114;52.314;8.910;2023-06-14T08:43:05;25.10;94.00
30308;DHT22;17114;52.314;8.910;2023-06-14T08:45:32;24.80;95.20
30308;DHT22;17114;52.314;8.910;2023-06-14T08:47:59;24.70;95.50
30308;DHT22;17114;52.314;8.910;2023-06-14T08:50:27;24.70;95.50
30308;DHT22;17114;52.314;8.910;2023-06-14T08:53:01;24.90;95.40
30308;DHT22;17114;52.314;8.910;2023-06-14T08:55:31;25.10;94.50
30308;DHT22;17114;52.314;8.910;2023-06-14T08:58:04;25.20;95.70
30308;DHT22;17114;52.314;8.910;2023-06-14T09:00:32;25.80;94.90
30308;DHT22;17114;52.314;8.910;2023-06-14T09:03:00;26.10;93.70
30308;DHT22;17114;52.314;8.910;2023-06-14T09:05:28;26.20;93.30
30308;DHT22;17114;52.314;8.910;2023-06-14T09:07:56;26.60;93.20
30308;DHT22;17114;52.314;8.910;2023-06-14T09:10:32;26.60;92.90
30308;DHT22;17114;52.314;8.910;2023-06-14T09:13:05;26.80;92.50
30308;DHT22;17114;52.314;8.910;2023-06-14T09:15:35;26.60;90.30
30308;DHT22;17114;52.314;8.910;2023-06-14T09:18:02;26.40;91.40
30308;DHT22;17114;52.314;8.910;2023-06-14T09:20:30;26.40;91.30
30308;DHT22;17114;52.314;8.910;2023-06-14T09:22:58;26.40;92.20
30308;DHT22;17114;52.314;8.910;2023-06-14T09:25:25;26.40;91.40
30308;DHT22;17114;52.314;8.910;2023-06-14T09:28:09;26.40;91.20
30308;DHT22;17114;52.314;8.910;2023-06-14T09:30:39;26.20;91.20
30308;DHT22;17114;52.314;8.910;2023-06-14T09:33:07;26.10;92.40
30308;DHT22;17114;52.314;8.910;2023-06-14T09:35:34;25.90;93.80
30308;DHT22;17114;52.314;8.910;2023-06-14T09:38:03;26.20;92.10
30308;DHT22;17114;52.314;8.910;2023-06-14T09:40:34;26.50;90.70
30308;DHT22;17114;52.314;8.910;2023-06-14T09:43:05;26.70;91.30
30308;DHT22;17114;52.314;8.910;2023-06-14T09:45:33;26.80;91.40
30308;DHT22;17114;52.314;8.910;2023-06-14T09:48:00;26.90;90.60
30308;DHT22;17114;52.314;8.910;2023-06-14T09:50:34;26.50;90.50
30308;DHT22;17114;52.314;8.910;2023-06-14T09:53:11;26.20;92.40
30308;DHT22;17114;52.314;8.910;2023-06-14T09:55:41;26.20;92.00
30308;DHT22;17114;52.314;8.910;2023-06-14T09:58:12;26.10;91.00
30308;DHT22;17114;52.314;8.910;2023-06-14T10:00:43;26.20;93.10
30308;DHT22;17114;52.314;8.910;2023-06-14T10:03:25;26.00;90.70
30308;DHT22;17114;52.314;8.910;2023-06-14T10:06:09;25.50;91.10
30308;DHT22;17114;52.314;8.910;2023-06-14T10:08:37;25.10;90.70
30308;DHT22;17114;52.314;8.910;2023-06-14T10:11:06;25.10;92.50
30308;DHT22;17114;52.314;8.910;2023-06-14T10:13:34;25.30;91.00
30308;DHT22;17114;52.314;8.910;2023-06-14T10:23:58;25.60;91.20
30308;DHT22;17114;52.314;8.910;2023-06-14T10:26:28;25.70;90.80
30308;DHT22;17114;52.314;8.910;2023-06-14T10:29:07;26.00;90.70
30308;DHT22;17114;52.314;8.910;2023-06-14T10:31:49;26.60;91.70
30308;DHT22;17114;52.314;8.910;2023-06-14T10:34:28;26.50;90.80
30308;DHT22;17114;52.314;8.910;2023-06-14T10:37:13;26.30;91.30
30308;DHT22;17114;52.314;8.910;2023-06-14T10:39:43;25.90;89.60
30308;DHT22;17114;52.314;8.910;2023-06-14T10:42:15;25.50;90.00
30308;DHT22;17114;52.314;8.910;2023-06-14T10:47:36;26.20;90.80
30308;DHT22;17114;52.314;8.910;2023-06-14T10:50:09;26.40;91.00
30308;DHT22;17114;52.314;8.910;2023-06-14T10:52:42;26.60;89.30
30308;DHT22;17114;52.314;8.910;2023-06-14T10:55:13;26.50;90.00
30308;DHT22;17114;52.314;8.910;2023-06-14T10:57:53;26.10;89.90
30308;DHT22;17114;52.314;8.910;2023-06-14T11:00:28;25.80;90.20
30308;DHT22;17114;52.314;8.910;2023-06-14T11:03:27;26.10;90.40
30308;DHT22;17114;52.314;8.910;2023-06-14T11:05:59;25.90;90.20
30308;DHT22;17114;52.314;8.910;2023-06-14T11:11:15;26.00;90.60
30308;DHT22;17114;52.314;8.910;2023-06-14T11:13:46;26.30;90.20
30308;DHT22;17114;52.314;8.910;2023-06-14T11:16:17;26.40;90.20
30308;DHT22;17114;52.314;8.910;2023-06-14T11:18:49;26.40;91.40
30308;DHT22;17114;52.314;8.910;2023-06-14T11:21:17;26.40;90.80
30308;DHT22;17114;52.314;8.910;2023-06-14T11:23:51;26.50;91.30
30308;DHT22;17114;52.314;8.910;2023-06-14T11:26:30;26.30;91.00
30308;DHT22;17114;52.314;8.910;2023-06-14T11:28:59;26.40;91.20
30308;DHT22;17114;52.314;8.910;2023-06-14T11:31:29;26.50;90.50
30308;DHT22;17114;52.314;8.910;2023-06-14T11:33:58;26.80;88.00
30308;DHT22;17114;52.314;8.910;2023-06-14T11:36:33;26.30;90.60
30308;DHT22;17114;52.314;8.910;2023-06-14T11:39:02;26.20;90.20
30308;DHT22;17114;52.314;8.910;2023-06-14T11:41:40;26.10;88.90
30308;DHT22;17114;52.314;8.910;2023-06-14T11:44:09;25.80;90.00
30308;DHT22;17114;52.314;8.910;2023-06-14T11:46:38;25.80;90.20
30308;DHT22;17114;52.314;8.910;2023-06-14T11:49:07;26.00;90.90
30308;DHT22;17114;52.314;8.910;2023-06-14T11:51:37;26.20;90.50
30308;DHT22;17114;52.314;8.910;2023-06-14T11:54:06;26.30;90.00
30308;DHT22;17114;52.314;8.910;2023-06-14T11:56:36;26.50;89.30
30308;DHT22;17114;52.314;8.910;2023-06-14T11:59:05;26.30;86.70
30308;DHT22;17114;52.314;8.910;2023-06-14T12:01:36;25.80;87.70
30308;DHT22;17114;52.314;8.910;2023-06-14T12:04:06;25.70;88.20
30308;DHT22;17114;52.314;8.910;2023-06-14T12:06:34;25.70;90.00
30308;DHT22;17114;52.314;8.910;2023-06-14T12:09:07;25.80;89.20
30308;DHT22;17114;52.314;8.910;2023-06-14T12:11:43;25.70;90.00
30308;DHT22;17114;52.314;8.910;2023-06-14T12:14:11;25.90;89.40
30308;DHT22;17114;52.314;8.910;2023-06-14T12:16:39;26.20;91.50
30308;DHT22;17114;52.314;8.910;2023-06-14T12:19:13;26.50;89.30
30308;DHT22;17114;52.314;8.910;2023-06-14T12:21:41;26.40;88.40
30308;DHT22;17114;52.314;8.910;2023-06-14T12:24:08;26.60;90.90
30308;DHT22;17114;52.314;8.910;2023-06-14T12:26:40;26.20;88.20
30308;DHT22;17114;52.314;8.910;2023-06-14T12:29:07;25.80;88.80
30308;DHT22;17114;52.314;8.910;2023-06-14T12:31:34;25.40;90.70
30308;DHT22;17114;52.314;8.910;2023-06-14T12:34:02;25.50;90.60
30308;DHT22;17114;52.314;8.910;2023-06-14T12:36:29;25.50;90.90
30308;DHT22;17114;52.314;8.910;2023-06-14T12:38:56;25.90;91.00
30308;DHT22;17114;52.314;8.910;2023-06-14T12:41:23;26.00;90.80
30308;DHT22;17114;52.314;8.910;2023-06-14T12:43:51;26.20;90.10
30308;DHT22;17114;52.314;8.910;2023-06-14T12:46:18;26.60;90.60
30308;DHT22;17114;52.314;8.910;2023-06-14T12:48:45;26.70;90.00
30308;DHT22;17114;52.314;8.910;2023-06-14T12:51:12;26.70;89.50
30308;DHT22;17114;52.314;8.910;2023-06-14T12:53:39;26.70;88.50
30308;DHT22;17114;52.314;8.910;2023-06-14T12:56:07;26.50;89.50
30308;DHT22;17114;52.314;8.910;2023-06-14T12:58:34;26.50;88.60
30308;DHT22;17114;52.314;8.910;2023-06-14T13:01:01;26.20;89.30
30308;DHT22;17114;52.314;8.910;2023-06-14T13:03:28;25.80;89.80
30308;DHT22;17114;52.314;8.910;2023-06-14T13:05:55;25.60;90.00
30308;DHT22;17114;52.314;8.910;2023-06-14T13:08:23;25.60;90.60
30308;DHT22;17114;52.314;8.910;2023-06-14T13:10:51;26.00;91.30
30308;DHT22;17114;52.314;8.910;2023-06-14T13:13:18;25.90;89.50
30308;DHT22;17114;52.314;8.910;2023-06-14T13:15:46;25.90;90.40
30308;DHT22;17114;52.314;8.910;2023-06-14T13:18:13;26.00;90.50
30308;DHT22;17114;52.314;8.910;2023-06-14T13:20:40;26.00;90.00
30308;DHT22;17114;52.314;8.910;2023-06-14T13:23:08;25.80;90.10
30308;DHT22;17114;52.314;8.910;2023-06-14T13:25:37;25.50;90.10
30308;DHT22;17114;52.314;8.910;2023-06-14T13:28:05;25.60;89.40
30308;DHT22;17114;52.314;8.910;2023-06-14T13:30:33;25.70;91.00
30308;DHT22;17114;52.314;8.910;2023-06-14T13:33:01;26.00;90.40
30308;DHT22;17114;52.314;8.910;2023-06-14T13:35:28;26.00;90.60
30308;DHT22;17114;52.314;8.910;2023-06-14T13:37:55;26.00;91.70
30308;DHT22;17114;52.314;8.910;2023-06-14T13:40:22;26.10;91.30
30308;DHT22;17114;52.314;8.910;2023-06-14T13:42:49;26.00;90.50
30308;DHT22;17114;52.314;8.910;2023-06-14T13:45:16;26.00;91.10
30308;DHT22;17114;52.314;8.910;2023-06-14T13:47:43;26.10;90.20
30308;DHT22;17114;52.314;8.910;2023-06-14T13:50:11;26.00;90.50
30308;DHT22;17114;52.314;8.910;2023-06-14T13:52:39;25.90;91.10
30308;DHT22;17114;52.314;8.910;2023-06-14T13:55:06;25.70;90.80
30308;DHT22;17114;52.314;8.910;2023-06-14T13:57:33;25.50;90.20
30308;DHT22;17114;52.314;8.910;2023-06-14T14:00:00;25.50;90.70
30308;DHT22;17114;52.314;8.910;2023-06-14T14:02:29;25.50;90.10
30308;DHT22;17114;52.314;8.910;2023-06-14T14:04:56;25.40;90.70
30308;DHT22;17114;52.314;8.910;2023-06-14T14:07:24;25.40;91.20
30308;DHT22;17114;52.314;8.910;2023-06-14T14:09:51;25.50;91.30
30308;DHT22;17114;52.314;8.910;2023-06-14T14:12:20;25.60;91.00
30308;DHT22;17114;52.314;8.910;2023-06-14T14:14:47;25.70;91.40
30308;DHT22;17114;52.314;8.910;2023-06-14T14:17:14;25.70;91.10
30308;DHT22;17114;52.314;8.910;2023-06-14T14:19:41;25.40;89.00
30308;DHT22;17114;52.314;8.910;2023-06-14T14:22:08;25.30;90.20
30308;DHT22;17114;52.314;8.910;2023-06-14T14:24:35;25.30;90.80
30308;DHT22;17114;52.314;8.910;2023-06-14T14:27:03;25.30;90.20
30308;DHT22;17114;52.314;8.910;2023-06-14T14:29:31;25.10;90.80
30308;DHT22;17114;52.314;8.910;2023-06-14T14:31:58;25.20;91.50
30308;DHT22;17114;52.314;8.910;2023-06-14T14:34:25;25.10;90.90
30308;DHT22;17114;52.314;8.910;2023-06-14T14:36:53;25.20;90.60
30308;DHT22;17114;52.314;8.910;2023-06-14T14:39:21;25.10;90.90
30308;DHT22;17114;52.314;8.910;2023-06-14T14:41:49;25.00;91.40
30308;DHT22;17114;52.314;8.910;2023-06-14T14:44:16;25.10;91.80
30308;DHT22;17114;52.314;8.910;2023-06-14T14:46:45;25.20;91.40
30308;DHT22;17114;52.314;8.910;2023-06-14T14:49:12;25.30;91.20
30308;DHT22;17114;52.314;8.910;2023-06-14T14:51:39;25.40;91.20
30308;DHT22;17114;52.314;8.910;2023-06-14T14:54:06;25.30;91.10
30308;DHT22;17114;52.314;8.910;2023-06-14T14:56:33;25.40;91.90
30308;DHT22;17114;52.314;8.910;2023-06-14T14:59:02;25.40;91.00
30308;DHT22;17114;52.314;8.910;2023-06-14T15:01:29;25.20;91.20
30308;DHT22;17114;52.314;8.910;2023-06-14T15:03:57;25.10;90.50
30308;DHT22;17114;52.314;8.910;2023-06-14T15:06:26;24.90;90.60
30308;DHT22;17114;52.314;8.910;2023-06-14T15:08:53;24.80;91.40
30308;DHT22;17114;52.314;8.910;2023-06-14T15:11:20;24.80;91.00
30308;DHT22;17114;52.314;8.910;2023-06-14T15:13:47;25.00;90.90
30308;DHT22;17114;52.314;8.910;2023-06-14T15:16:15;25.00;91.00
30308;DHT22;17114;52.314;8.910;2023-06-14T15:18:43;24.90;90.80
30308;DHT22;17114;52.314;8.910;2023-06-14T15:21:11;24.70;91.00
30308;DHT22;17114;52.314;8.910;2023-06-14T15:23:38;24.50;91.40
30308;DHT22;17114;52.314;8.910;2023-06-14T15:26:05;24.40;91.90
30308;DHT22;17114;52.314;8.910;2023-06-14T15:28:32;24.20;92.20
30308;DHT22;17114;52.314;8.910;2023-06-14T15:31:00;24.10;92.90
30308;DHT22;17114;52.314;8.910;2023-06-14T15:33:27;23.90;93.20
30308;DHT22;17114;52.314;8.910;2023-06-14T15:35:54;23.90;93.80
30308;DHT22;17114;52.314;8.910;2023-06-14T15:38:22;23.90;93.80
30308;DHT22;17114;52.314;8.910;2023-06-14T15:40:49;24.00;94.10
30308;DHT22;17114;52.314;8.910;2023-06-14T15:43:18;24.10;93.70
30308;DHT22;17114;52.314;8.910;2023-06-14T15:45:45;24.10;93.70
30308;DHT22;17114;52.314;8.910;2023-06-14T15:48:12;24.10;93.70
30308;DHT22;17114;52.314;8.910;2023-06-14T15:50:39;24.20;93.70
30308;DHT22;17114;52.314;8.910;2023-06-14T15:53:06;24.30;94.20
30308;DHT22;17114;52.314;8.910;2023-06-14T15:55:33;24.40;94.20